Time;durP1;ratioP1;P1;durP2;ratioP2;P2;SDS_P1;SDS_P2;PMS_P1;PMS_P2;Temp;Humidity;BMP_temperature;BMP_pressure;BME280_temperature;BME280_humidity;BME280_pressure;Samples;Min_cycle;Max_cycle;Signal;HPM_P1;HPM_P2
2023/11/22 00:02:20;;;;;;;15.57;7.43;;;-1.50;99.90;;;;;;4955660;29;20253;-79
2023/11/22 00:04:47;;;;;;;12.73;6.87;;;-1.50;99.90;;;;;;4955107;29;20248;-79
2023/11/22 00:07:14;;;;;;;14.00;7.20;;;-1.60;99.90;;;;;;4955661;29;20600;-79
2023/11/22 00:09:42;;;;;;;14.20;6.93;;;-1.50;99.90;;;;;;4955365;29;20202;-79
2023/11/22 00:12:09;;;;;;;13.73;6.83;;;-1.50;99.90;;;;;;4955290;29;20226;-79
2023/11/22 00:14:37;;;;;;;15.27;7.00;;;-1.60;99.90;;;;;;4954074;29;20205;-80
2023/11/22 00:17:04;;;;;;;14.83;6.80;;;-1.50;99.90;;;;;;4955324;29;20205;-79
2023/11/22 00:19:32;;;;;;;12.57;6.57;;;-1.50;99.90;;;;;;4955277;29;20280;-80
2023/11/22 00:22:00;;;;;;;14.60;7.33;;;-1.60;99.90;;;;;;4954045;29;20209;-79
2023/11/22 00:24:27;;;;;;;14.00;6.40;;;-1.60;99.90;;;;;;4922455;29;20201;-79
2023/11/22 00:26:54;;;;;;;14.07;6.77;;;-1.60;99.90;;;;;;4938093;29;20711;-80
2023/11/22 00:29:21;;;;;;;12.93;6.67;;;-1.60;99.90;;;;;;4955115;29;20206;-79
2023/11/22 00:31:48;;;;;;;13.77;6.73;;;-1.60;99.90;;;;;;4955103;29;20298;-80
2023/11/22 00:34:15;;;;;;;11.30;6.33;;;-1.50;99.90;;;;;;4938246;29;20199;-80
2023/11/22 00:36:47;;;;;;;13.70;6.50;;;-1.50;99.90;;;;;;4955515;29;20218;-80
2023/11/22 00:39:14;;;;;;;15.40;6.60;;;-1.60;99.90;;;;;;4954889;29;20659;-80
2023/11/22 00:41:41;;;;;;;11.33;5.80;;;-1.60;99.90;;;;;;4954758;29;20281;-79
2023/11/22 00:44:08;;;;;;;12.53;6.00;;;-1.60;99.90;;;;;;4954069;29;20238;-80
2023/11/22 00:46:37;;;;;;;15.93;6.07;;;-1.60;99.90;;;;;;4937823;29;20222;-79
2023/11/22 00:49:04;;;;;;;10.43;6.03;;;-1.70;99.90;;;;;;4954690;29;20205;-79
2023/11/22 00:51:32;;;;;;;10.90;6.10;;;-1.70;99.90;;;;;;4954401;29;20445;-80
2023/11/22 00:53:59;;;;;;;9.50;5.40;;;-1.70;99.90;;;;;;4954891;29;20253;-80
2023/11/22 00:56:27;;;;;;;11.77;6.13;;;-1.70;99.90;;;;;;4955229;29;20219;-79
2023/11/22 00:58:55;;;;;;;11.63;5.87;;;-1.60;99.90;;;;;;4937240;29;20534;-80
2023/11/22 01:01:22;;;;;;;11.50;5.90;;;-1.50;99.90;;;;;;4953400;29;20250;-80
2023/11/22 01:03:49;;;;;;;12.20;6.07;;;-1.60;99.90;;;;;;4954536;29;20247;-80
2023/11/22 01:06:17;;;;;;;11.00;5.97;;;-1.60;99.90;;;;;;4954133;29;20308;-79
2023/11/22 01:08:45;;;;;;;11.43;6.13;;;-1.70;99.90;;;;;;4953628;29;20205;-79
2023/11/22 01:11:12;;;;;;;12.30;6.53;;;-1.70;99.90;;;;;;4952937;29;20219;-79
2023/11/22 01:13:42;;;;;;;11.50;6.17;;;-1.70;99.90;;;;;;4954538;29;20246;-80
2023/11/22 01:16:10;;;;;;;11.80;6.43;;;-1.70;99.90;;;;;;4954313;29;20293;-81
2023/11/22 01:18:37;;;;;;;10.77;5.80;;;-1.80;99.90;;;;;;4954317;29;20245;-81
2023/11/22 01:21:06;;;;;;;11.90;5.70;;;-1.80;99.90;;;;;;4954327;29;20229;-80
2023/11/22 01:23:33;;;;;;;11.87;6.07;;;-1.80;99.90;;;;;;4954123;28;20282;-81
2023/11/22 01:26:02;;;;;;;10.57;6.00;;;-1.70;99.90;;;;;;4954347;29;20236;-81
2023/11/22 01:28:34;;;;;;;13.60;6.37;;;-1.80;99.90;;;;;;4954374;29;20196;-80
2023/11/22 01:31:04;;;;;;;11.20;5.53;;;-1.90;99.90;;;;;;4953129;29;20198;-80
2023/11/22 01:33:32;;;;;;;9.80;5.67;;;-2.00;99.90;;;;;;4937017;29;20599;-80
2023/11/22 01:35:59;;;;;;;12.77;5.53;;;-2.00;99.90;;;;;;4937105;29;20556;-80
2023/11/22 01:38:26;;;;;;;11.70;5.53;;;-1.90;99.90;;;;;;4955778;29;20198;-80
2023/11/22 01:40:54;;;;;;;12.60;5.40;;;-2.00;99.90;;;;;;4954485;29;20218;-80
2023/11/22 01:43:23;;;;;;;9.07;5.23;;;-2.00;99.90;;;;;;4954180;29;20199;-80
2023/11/22 01:45:52;;;;;;;8.70;5.07;;;-2.00;99.90;;;;;;4939367;29;20255;-81
2023/11/22 01:48:19;;;;;;;9.77;5.20;;;-2.00;99.90;;;;;;4952637;29;20712;-80
2023/11/22 01:50:47;;;;;;;11.53;5.40;;;-2.00;99.90;;;;;;4937133;29;20194;-81
2023/11/22 01:53:18;;;;;;;11.47;5.40;;;-2.00;99.90;;;;;;4954932;29;20197;-81
2023/11/22 01:55:47;;;;;;;8.80;4.80;;;-2.00;99.90;;;;;;4954298;29;20241;-80
2023/11/22 01:58:14;;;;;;;11.70;5.83;;;-2.00;99.90;;;;;;4954742;28;20202;-80
2023/11/22 02:00:52;;;;;;;8.83;5.60;;;-2.10;99.90;;;;;;4940934;29;20583;-80
2023/11/22 02:03:20;;;;;;;8.27;4.67;;;-2.10;99.90;;;;;;4959207;29;20194;-81
2023/11/22 02:05:49;;;;;;;10.37;5.20;;;-2.20;99.90;;;;;;4927880;29;20305;-81
2023/11/22 02:08:18;;;;;;;10.60;5.00;;;-2.20;99.90;;;;;;4965804;29;20194;-80
2023/11/22 02:10:49;;;;;;;7.87;4.50;;;-2.20;99.90;;;;;;4966051;29;20315;-81
2023/11/22 02:13:16;;;;;;;8.57;4.73;;;-2.20;99.90;;;;;;4941074;29;20246;-81
2023/11/22 02:15:43;;;;;;;10.43;4.87;;;-2.20;99.90;;;;;;4940679;29;20206;-80
2023/11/22 02:18:10;;;;;;;9.30;4.83;;;-2.10;99.90;;;;;;4957411;29;20729;-80
2023/11/22 02:20:41;;;;;;;9.87;5.40;;;-2.10;99.90;;;;;;4957364;29;20199;-80
2023/11/22 02:23:09;;;;;;;9.27;4.77;;;-2.20;99.90;;;;;;4956306;29;20197;-80
2023/11/22 02:25:37;;;;;;;8.30;4.80;;;-2.20;99.90;;;;;;4956992;29;20226;-80
2023/11/22 02:28:04;;;;;;;8.87;4.30;;;-2.10;99.90;;;;;;4957259;29;20666;-80
2023/11/22 02:30:31;;;;;;;6.97;4.53;;;-2.10;99.90;;;;;;4957398;29;20208;-80
2023/11/22 02:32:59;;;;;;;9.67;4.67;;;-2.20;99.90;;;;;;4940033;29;20195;-80
2023/11/22 02:35:30;;;;;;;8.27;4.93;;;-2.20;99.90;;;;;;4939934;29;20206;-80
2023/11/22 02:37:57;;;;;;;8.57;4.73;;;-2.10;99.90;;;;;;4924270;29;20606;-80
2023/11/22 02:40:25;;;;;;;9.27;4.90;;;-2.10;99.90;;;;;;4955720;29;20219;-80
2023/11/22 02:42:53;;;;;;;9.00;4.80;;;-2.00;99.90;;;;;;4956993;29;20675;-80
2023/11/22 02:45:25;;;;;;;7.20;4.53;;;-2.10;99.90;;;;;;4940165;29;20220;-81
2023/11/22 02:47:52;;;;;;;6.47;3.97;;;-2.10;99.90;;;;;;4957155;29;20278;-81
2023/11/22 02:50:20;;;;;;;8.07;4.30;;;-2.10;99.90;;;;;;4957152;29;20198;-80
2023/11/22 02:52:47;;;;;;;7.43;4.20;;;-2.30;99.90;;;;;;4955740;29;20191;-80
2023/11/22 02:55:14;;;;;;;9.53;4.60;;;-2.30;99.90;;;;;;4956832;29;20731;-80
2023/11/22 02:57:42;;;;;;;7.53;4.53;;;-2.40;99.90;;;;;;4956775;29;20205;-80
2023/11/22 03:00:15;;;;;;;7.27;4.53;;;-2.40;99.90;;;;;;4956663;29;20645;-80
2023/11/22 03:02:43;;;;;;;9.27;4.70;;;-2.40;99.90;;;;;;4956995;29;20202;-80
2023/11/22 03:05:10;;;;;;;8.50;4.53;;;-2.40;99.90;;;;;;4956234;29;20707;-80
2023/11/22 03:07:38;;;;;;;7.20;4.43;;;-2.40;99.90;;;;;;4956410;29;20633;-80
2023/11/22 03:10:07;;;;;;;9.10;5.00;;;-2.30;99.90;;;;;;4938265;29;20193;-81
2023/11/22 03:12:35;;;;;;;7.97;4.43;;;-2.30;99.90;;;;;;4955292;29;20651;-81
2023/11/22 03:15:02;;;;;;;8.40;5.27;;;-2.30;99.90;;;;;;4955067;29;20212;-81
2023/11/22 03:17:29;;;;;;;9.07;4.57;;;-2.30;99.90;;;;;;4956561;29;20198;-80
2023/11/22 03:19:57;;;;;;;8.77;4.70;;;-2.30;99.90;;;;;;4956306;29;20199;-80
2023/11/22 03:22:33;;;;;;;7.60;4.50;;;-2.40;99.90;;;;;;4939100;29;20200;-80
2023/11/22 03:25:02;;;;;;;8.67;5.00;;;-2.40;99.90;;;;;;4956534;29;20449;-80
2023/11/22 03:27:29;;;;;;;7.17;4.30;;;-2.40;99.90;;;;;;4956203;29;20199;-80
2023/11/22 03:29:57;;;;;;;7.40;4.33;;;-2.50;99.90;;;;;;4956355;29;20205;-80
2023/11/22 03:32:24;;;;;;;8.90;5.03;;;-2.60;99.90;;;;;;4956704;29;20216;-81
2023/11/22 03:34:51;;;;;;;10.33;4.53;;;-2.60;99.90;;;;;;4954678;29;20211;-80
2023/11/22 03:37:18;;;;;;;7.63;4.03;;;-2.60;99.90;;;;;;4938653;29;20194;-80
2023/11/22 03:39:48;;;;;;;7.63;4.23;;;-2.60;99.90;;;;;;4954945;29;20253;-80
2023/11/22 03:42:16;;;;;;;6.77;4.10;;;-2.70;99.90;;;;;;4955883;29;20242;-80
2023/11/22 03:44:44;;;;;;;6.80;3.83;;;-2.80;99.90;;;;;;4955876;29;20198;-80
2023/11/22 03:47:14;;;;;;;8.63;4.57;;;-2.80;99.90;;;;;;4939069;29;20234;-80
2023/11/22 03:49:42;;;;;;;7.67;4.10;;;-2.70;99.90;;;;;;4939447;29;20253;-81
2023/11/22 03:52:14;;;;;;;7.97;4.20;;;-2.80;99.90;;;;;;4954929;29;20199;-80
2023/11/22 03:54:41;;;;;;;7.57;4.33;;;-2.90;99.90;;;;;;4955771;29;20262;-81
2023/11/22 03:57:08;;;;;;;8.07;4.30;;;-3.00;99.90;;;;;;4938829;29;20614;-80
2023/11/22 03:59:35;;;;;;;6.57;4.03;;;-3.10;99.90;;;;;;4955586;29;20628;-80
2023/11/22 04:02:03;;;;;;;8.10;4.30;;;-3.10;99.90;;;;;;4938595;29;20210;-80
2023/11/22 04:04:31;;;;;;;7.23;4.27;;;-3.20;99.90;;;;;;4954038;29;20588;-81
2023/11/22 04:06:58;;;;;;;6.93;3.97;;;-3.20;99.90;;;;;;4955386;29;20253;-80
2023/11/22 04:09:25;;;;;;;6.40;4.10;;;-3.20;99.90;;;;;;4954246;29;20213;-80
2023/11/22 04:11:52;;;;;;;9.83;4.67;;;-3.30;99.90;;;;;;4938168;29;20222;-80
2023/11/22 04:14:21;;;;;;;6.17;3.87;;;-3.40;99.90;;;;;;4955759;29;20199;-81
2023/11/22 04:16:49;;;;;;;8.50;4.40;;;-3.50;99.90;;;;;;4954417;29;20563;-80
2023/11/22 04:19:16;;;;;;;7.43;4.40;;;-3.50;99.90;;;;;;4955577;29;20200;-80
2023/11/22 04:21:44;;;;;;;7.57;4.40;;;-3.50;99.90;;;;;;4953839;28;20320;-80
2023/11/22 04:24:12;;;;;;;9.03;4.73;;;-3.60;99.90;;;;;;4955496;29;20667;-80
2023/11/22 04:26:39;;;;;;;7.47;4.60;;;-3.70;99.90;;;;;;4954073;29;20583;-80
2023/11/22 04:29:06;;;;;;;9.23;4.70;;;-3.70;99.90;;;;;;4953841;29;20651;-81
2023/11/22 04:31:33;;;;;;;9.17;4.80;;;-3.70;99.90;;;;;;4955023;29;20253;-80
2023/11/22 04:34:00;;;;;;;8.63;4.47;;;-3.70;99.90;;;;;;4954993;29;20202;-80
2023/11/22 04:36:28;;;;;;;8.33;4.40;;;-3.80;99.90;;;;;;4953723;29;20217;-81
2023/11/22 04:38:55;;;;;;;10.03;4.83;;;-3.80;99.90;;;;;;4937579;29;20682;-80
2023/11/22 04:41:22;;;;;;;6.27;4.20;;;-3.80;99.90;;;;;;4953989;29;20254;-80
2023/11/22 04:43:49;;;;;;;8.23;4.23;;;-3.80;99.90;;;;;;4953788;29;20209;-81
2023/11/22 04:46:17;;;;;;;7.93;4.13;;;-3.90;99.90;;;;;;4938325;29;20228;-80
2023/11/22 04:48:44;;;;;;;7.70;4.53;;;-3.90;99.90;;;;;;4954926;29;20294;-81
2023/11/22 04:51:12;;;;;;;8.97;4.60;;;-4.00;99.90;;;;;;4954942;29;20265;-80
2023/11/22 04:53:39;;;;;;;8.73;4.70;;;-4.10;99.90;;;;;;4954686;29;20197;-80
2023/11/22 04:56:06;;;;;;;8.00;4.27;;;-4.10;99.90;;;;;;4954653;29;20226;-81
2023/11/22 04:58:34;;;;;;;10.10;4.60;;;-4.10;99.90;;;;;;4954795;29;20698;-80
2023/11/22 05:01:01;;;;;;;8.33;4.60;;;-4.10;99.90;;;;;;4953335;29;20666;-80
2023/11/22 05:03:29;;;;;;;9.40;4.60;;;-4.20;99.90;;;;;;4937340;29;20194;-80
2023/11/22 05:05:56;;;;;;;5.77;3.93;;;-4.20;99.90;;;;;;4953578;29;20241;-80
2023/11/22 05:08:23;;;;;;;9.53;4.57;;;-4.20;99.90;;;;;;4954706;29;20257;-80
2023/11/22 05:10:50;;;;;;;8.50;4.40;;;-4.20;99.90;;;;;;4954578;29;20616;-80
2023/11/22 05:13:20;;;;;;;8.90;4.53;;;-4.20;99.90;;;;;;4953426;29;20182;-80
2023/11/22 05:15:47;;;;;;;9.10;4.80;;;-4.20;99.90;;;;;;4954625;29;20202;-80
2023/11/22 05:18:14;;;;;;;7.07;4.10;;;-4.30;99.90;;;;;;4953142;29;20301;-79
2023/11/22 05:20:41;;;;;;;8.40;4.60;;;-4.30;99.90;;;;;;4954388;29;20728;-80
2023/11/22 05:23:08;;;;;;;7.87;4.33;;;-4.30;99.90;;;;;;4937447;29;20222;-80
2023/11/22 05:25:36;;;;;;;8.97;4.33;;;-4.30;99.90;;;;;;4954388;29;20277;-80
2023/11/22 05:28:03;;;;;;;8.40;4.27;;;-4.30;99.90;;;;;;4952824;29;20213;-80
2023/11/22 05:30:30;;;;;;;8.53;4.80;;;-4.40;99.90;;;;;;4954166;29;20190;-80
2023/11/22 05:32:57;;;;;;;8.30;4.40;;;-4.40;99.90;;;;;;4936209;29;20202;-80
2023/11/22 05:35:25;;;;;;;8.67;4.50;;;-4.50;99.90;;;;;;4936948;29;20674;-80
2023/11/22 05:37:52;;;;;;;11.80;4.53;;;-4.50;99.90;;;;;;4954183;29;20212;-80
2023/11/22 05:40:19;;;;;;;9.43;4.70;;;-4.50;99.90;;;;;;4954343;29;20198;-80
2023/11/22 05:42:46;;;;;;;7.30;4.17;;;-4.50;99.90;;;;;;4937134;29;20198;-80
2023/11/22 05:45:13;;;;;;;7.87;4.43;;;-4.60;99.90;;;;;;4954433;29;20206;-80
2023/11/22 05:47:42;;;;;;;7.97;4.70;;;-4.60;99.90;;;;;;4952833;29;20237;-80
2023/11/22 05:50:10;;;;;;;9.20;4.77;;;-4.60;99.90;;;;;;4953126;29;20203;-80
2023/11/22 05:52:37;;;;;;;8.97;5.07;;;-4.70;99.90;;;;;;4954221;29;20202;-81
2023/11/22 05:55:05;;;;;;;9.70;4.83;;;-4.70;99.90;;;;;;4954262;29;20190;-80
2023/11/22 05:57:32;;;;;;;7.80;4.60;;;-4.70;99.90;;;;;;4953940;29;20198;-80
2023/11/22 05:59:59;;;;;;;8.37;4.87;;;-4.70;99.90;;;;;;4953251;29;20346;-80
2023/11/22 06:02:26;;;;;;;9.77;5.03;;;-4.70;99.90;;;;;;4954196;29;20250;-81
2023/11/22 06:04:54;;;;;;;10.80;5.27;;;-4.60;99.90;;;;;;4953975;29;20242;-80
2023/11/22 06:07:22;;;;;;;8.83;4.70;;;-4.60;99.90;;;;;;4953115;29;20226;-82
2023/11/22 06:09:49;;;;;;;10.17;5.03;;;-4.70;99.90;;;;;;4952969;29;20614;-81
2023/11/22 06:12:16;;;;;;;8.93;4.90;;;-4.60;99.90;;;;;;4953977;29;20609;-81
2023/11/22 06:14:43;;;;;;;11.03;5.40;;;-4.70;99.90;;;;;;4954281;29;20190;-80
2023/11/22 06:17:11;;;;;;;9.97;5.10;;;-4.70;99.90;;;;;;4936489;29;20261;-80
2023/11/22 06:19:39;;;;;;;8.70;5.00;;;-4.70;99.90;;;;;;4953470;29;20652;-81
2023/11/22 06:22:06;;;;;;;9.37;5.43;;;-4.80;99.90;;;;;;4953939;29;20194;-80
2023/11/22 06:24:35;;;;;;;10.93;5.50;;;-4.70;99.90;;;;;;4956146;29;20197;-80
2023/11/22 06:27:03;;;;;;;8.63;4.67;;;-4.80;99.90;;;;;;4953584;29;20703;-81
2023/11/22 06:29:31;;;;;;;10.20;4.97;;;-4.70;99.90;;;;;;4954023;29;20249;-81
2023/11/22 06:31:58;;;;;;;8.73;4.73;;;-4.70;99.90;;;;;;4954473;29;20206;-82
2023/11/22 06:34:26;;;;;;;9.30;4.73;;;-4.70;99.90;;;;;;4954035;29;20195;-82
2023/11/22 06:36:53;;;;;;;8.50;4.83;;;-4.70;99.90;;;;;;4936431;29;20214;-79
2023/11/22 06:39:22;;;;;;;7.83;4.73;;;-4.70;99.90;;;;;;4936611;29;20202;-81
2023/11/22 06:41:50;;;;;;;10.77;5.27;;;-4.70;99.90;;;;;;4952257;29;20210;-85
2023/11/22 06:44:18;;;;;;;10.20;5.50;;;-4.60;99.90;;;;;;4954845;28;20195;-83
2023/11/22 06:46:46;;;;;;;10.20;5.27;;;-4.60;99.90;;;;;;4956811;29;20218;-83
2023/11/22 06:49:14;;;;;;;9.70;5.10;;;-4.70;99.90;;;;;;4956851;29;20205;-83
2023/11/22 06:51:41;;;;;;;9.97;5.27;;;-4.70;99.90;;;;;;4956787;29;20191;-82
2023/11/22 06:54:10;;;;;;;10.93;5.60;;;-4.80;99.90;;;;;;4939545;29;20664;-81
2023/11/22 06:56:37;;;;;;;9.90;5.37;;;-4.80;99.90;;;;;;4955457;29;20377;-82
2023/11/22 06:59:05;;;;;;;10.20;5.27;;;-4.80;99.90;;;;;;4956681;29;20293;-80
2023/11/22 07:01:31;;;;;;;11.60;5.47;;;-4.70;99.90;;;;;;4955606;29;20245;-83
2023/11/22 07:04:00;;;;;;;12.10;5.70;;;-4.60;99.90;;;;;;4955788;29;20190;-80
2023/11/22 07:06:28;;;;;;;10.67;5.60;;;-4.50;99.90;;;;;;4951808;28;20227;-81
2023/11/22 07:08:55;;;;;;;9.37;5.53;;;-4.50;99.90;;;;;;4936367;29;20198;-79
2023/11/22 07:11:24;;;;;;;9.53;5.63;;;-4.50;99.90;;;;;;4937263;29;20214;-82
2023/11/22 07:13:51;;;;;;;8.70;5.30;;;-4.50;99.90;;;;;;4937393;29;20564;-81
2023/11/22 07:16:20;;;;;;;9.67;5.10;;;-4.50;99.90;;;;;;4935941;29;20199;-80
2023/11/22 07:18:47;;;;;;;11.00;5.80;;;-4.30;99.90;;;;;;4937279;29;20195;-80
2023/11/22 07:21:14;;;;;;;10.13;5.50;;;-4.20;99.90;;;;;;4937211;29;20203;-80
2023/11/22 07:23:42;;;;;;;11.60;5.33;;;-3.90;99.90;;;;;;4937146;29;20199;-80
2023/11/22 07:26:10;;;;;;;10.83;5.60;;;-3.40;99.90;;;;;;4936802;29;20214;-81
2023/11/22 07:28:37;;;;;;;10.37;4.97;;;-3.00;99.90;;;;;;4935757;29;20200;-81
2023/11/22 07:31:07;;;;;;;9.43;4.87;;;-2.70;99.90;;;;;;4936813;29;20218;-79
2023/11/22 07:33:35;;;;;;;8.93;4.73;;;-2.40;99.90;;;;;;4937241;29;20206;-79
2023/11/22 07:36:03;;;;;;;7.80;4.73;;;-2.30;99.90;;;;;;4936940;29;20229;-81
2023/11/22 07:38:31;;;;;;;10.03;5.07;;;-2.00;99.90;;;;;;4935652;29;20206;-81
2023/11/22 07:41:01;;;;;;;10.83;5.10;;;-1.70;99.90;;;;;;4935927;29;20228;-80
2023/11/22 07:43:28;;;;;;;10.17;4.63;;;-1.50;99.90;;;;;;4936885;29;20246;-76
2023/11/22 07:45:55;;;;;;;9.03;5.10;;;-1.20;99.90;;;;;;4936923;29;20246;-76
2023/11/22 07:48:22;;;;;;;10.37;4.97;;;-1.00;99.90;;;;;;4936386;29;20223;-76
2023/11/22 07:50:53;;;;;;;10.50;5.30;;;-0.90;99.90;;;;;;4936761;29;20669;-80
2023/11/22 07:53:20;;;;;;;11.40;4.97;;;-0.80;99.90;;;;;;4919826;29;20203;-81
2023/11/22 07:55:47;;;;;;;8.97;4.93;;;-0.60;99.90;;;;;;4934951;29;20302;-79
2023/11/22 07:58:15;;;;;;;8.30;5.10;;;-0.70;99.90;;;;;;4935590;29;20238;-80
2023/11/22 08:00:45;;;;;;;8.93;4.90;;;-0.80;99.90;;;;;;4935109;29;20202;-81
2023/11/22 08:03:15;;;;;;;10.57;5.37;;;-0.60;99.90;;;;;;4935746;29;20202;-82
2023/11/22 08:05:45;;;;;;;8.43;4.97;;;-0.50;99.90;;;;;;4936173;29;20238;-80
2023/11/22 08:08:13;;;;;;;7.87;4.73;;;-0.20;99.90;;;;;;4935018;29;20226;-80
2023/11/22 08:10:42;;;;;;;9.67;4.90;;;-0.10;99.90;;;;;;4935110;29;20692;-80
2023/11/22 08:13:09;;;;;;;10.60;5.10;;;-0.20;99.90;;;;;;4934990;29;20192;-80
2023/11/22 08:15:38;;;;;;;8.90;4.93;;;-0.10;99.90;;;;;;4935035;29;20204;-80
2023/11/22 08:18:05;;;;;;;8.30;4.47;;;0.00;99.90;;;;;;4934733;29;20203;-79
2023/11/22 08:20:33;;;;;;;9.63;4.40;;;0.20;99.90;;;;;;4950524;29;20213;-81
2023/11/22 08:23:00;;;;;;;6.17;3.93;;;0.20;99.90;;;;;;4950959;29;20262;-81
2023/11/22 08:25:27;;;;;;;8.20;3.70;;;0.40;99.90;;;;;;4934520;29;20637;-81
2023/11/22 08:27:55;;;;;;;7.10;4.43;;;0.50;99.90;;;;;;4935902;29;20245;-80
2023/11/22 08:30:23;;;;;;;5.93;4.00;;;0.40;99.90;;;;;;4934562;29;20201;-81
2023/11/22 08:32:55;;;;;;;8.10;4.90;;;0.30;99.90;;;;;;4934308;29;20210;-79
2023/11/22 08:35:23;;;;;;;7.33;4.43;;;0.20;99.90;;;;;;4936086;29;20215;-77
2023/11/22 08:37:51;;;;;;;6.97;4.20;;;-0.10;99.90;;;;;;4903313;29;20552;-83
2023/11/22 08:40:20;;;;;;;6.70;4.27;;;-0.30;99.90;;;;;;4934364;29;20203;-77
2023/11/22 08:42:48;;;;;;;8.20;4.10;;;-0.60;99.90;;;;;;4936074;29;20226;-76
2023/11/22 08:45:15;;;;;;;7.53;4.40;;;-0.80;99.90;;;;;;4935365;29;20217;-77
2023/11/22 08:47:43;;;;;;;8.47;4.40;;;-0.90;99.90;;;;;;4934268;29;20849;-76
2023/11/22 08:50:15;;;;;;;8.37;4.60;;;-1.00;99.90;;;;;;4935703;29;20203;-76
2023/11/22 08:52:44;;;;;;;7.13;4.60;;;-1.10;99.90;;;;;;4935772;29;20296;-76
2023/11/22 08:55:14;;;;;;;8.50;4.60;;;-1.20;99.90;;;;;;4934438;29;20201;-76
2023/11/22 08:57:41;;;;;;;6.67;4.17;;;-1.30;99.90;;;;;;4935478;29;20198;-76
2023/11/22 09:00:10;;;;;;;6.90;4.07;;;-1.50;99.90;;;;;;4950272;29;20217;-76
2023/11/22 09:02:38;;;;;;;8.27;4.13;;;-1.50;99.90;;;;;;4934709;29;20256;-76
2023/11/22 09:05:12;;;;;;;6.87;3.77;;;-1.70;99.90;;;;;;4935322;29;20254;-76
2023/11/22 09:07:40;;;;;;;7.03;4.30;;;-1.70;99.90;;;;;;4934394;29;20314;-77
2023/11/22 09:10:09;;;;;;;8.13;4.37;;;-1.60;99.90;;;;;;4935080;29;20204;-77
2023/11/22 09:12:41;;;;;;;7.67;4.37;;;-1.60;99.90;;;;;;4918436;29;20205;-76
2023/11/22 09:15:11;;;;;;;8.07;4.40;;;-1.60;99.90;;;;;;4918000;29;20207;-81
2023/11/22 09:17:43;;;;;;;8.40;4.60;;;-1.60;99.90;;;;;;4935712;29;20210;-83
2023/11/22 09:20:14;;;;;;;7.13;4.53;;;-1.60;99.90;;;;;;4934193;29;20195;-80
2023/11/22 09:22:50;;;;;;;8.33;4.73;;;-1.60;99.90;;;;;;4935821;29;20201;-80
2023/11/22 09:25:24;;;;;;;9.20;5.10;;;-1.60;99.90;;;;;;4935278;29;20264;-81
2023/11/22 09:27:55;;;;;;;7.87;4.57;;;-1.60;99.90;;;;;;4935513;29;20218;-82
2023/11/22 09:30:33;;;;;;;7.40;4.50;;;-1.70;99.90;;;;;;4935070;29;20226;-81
2023/11/22 09:33:05;;;;;;;8.53;4.97;;;-1.70;99.90;;;;;;4917958;29;20242;-82
2023/11/22 09:35:33;;;;;;;10.80;5.23;;;-1.60;99.90;;;;;;4918389;29;20213;-81
2023/11/22 09:38:02;;;;;;;14.63;5.03;;;-1.60;99.90;;;;;;4935256;29;20185;-83
2023/11/22 09:40:32;;;;;;;8.00;4.87;;;-1.60;99.90;;;;;;4935168;29;20308;-82
2023/11/22 09:43:01;;;;;;;8.60;4.90;;;-1.70;99.90;;;;;;4902675;29;20187;-82
2023/11/22 09:45:32;;;;;;;9.93;5.10;;;-1.70;99.90;;;;;;4933521;29;20684;-83
2023/11/22 09:48:02;;;;;;;7.00;4.43;;;-1.70;99.90;;;;;;4951453;29;20290;-80
2023/11/22 09:50:39;;;;;;;10.17;4.73;;;-1.70;99.90;;;;;;4938365;29;20532;-82
2023/11/22 09:53:12;;;;;;;9.23;5.00;;;-1.60;99.90;;;;;;4920146;29;20208;-82
2023/11/22 09:55:43;;;;;;;7.40;4.13;;;-1.60;99.90;;;;;;4917592;29;20297;-82
2023/11/22 09:58:12;;;;;;;6.00;4.10;;;-1.50;99.90;;;;;;4933664;29;20201;-83
2023/11/22 10:00:41;;;;;;;8.73;4.20;;;-1.60;99.90;;;;;;4918241;29;20204;-82
2023/11/22 10:03:14;;;;;;;8.13;4.07;;;-1.60;99.90;;;;;;4933329;29;20191;-82
2023/11/22 10:05:44;;;;;;;6.83;4.33;;;-1.50;99.90;;;;;;4902219;29;20705;-83
2023/11/22 10:08:12;;;;;;;7.00;3.93;;;-1.50;99.90;;;;;;4934577;29;20268;-83
2023/11/22 10:10:45;;;;;;;6.80;4.33;;;-1.50;99.90;;;;;;4949193;29;20216;-85
2023/11/22 10:13:13;;;;;;;6.80;4.17;;;-1.60;99.90;;;;;;4949749;29;20605;-84
2023/11/22 10:15:40;;;;;;;6.10;3.77;;;-1.50;99.90;;;;;;4934812;29;20195;-83
2023/11/22 10:18:07;;;;;;;8.17;3.70;;;-1.40;99.90;;;;;;4934535;29;20708;-82
2023/11/22 10:20:39;;;;;;;9.43;4.37;;;-1.40;99.90;;;;;;4920219;29;20562;-82
2023/11/22 10:23:12;;;;;;;6.73;4.33;;;-1.30;99.90;;;;;;4938560;29;20566;-84
2023/11/22 10:25:51;;;;;;;6.63;4.10;;;-1.40;99.90;;;;;;4938408;29;20302;-81
2023/11/22 10:28:26;;;;;;;8.57;4.00;;;-1.40;99.90;;;;;;4937080;29;20238;-83
2023/11/22 10:30:57;;;;;;;10.47;4.33;;;-1.40;99.90;;;;;;4938080;29;20705;-82
2023/11/22 10:33:25;;;;;;;7.57;3.90;;;-1.40;99.90;;;;;;4921184;29;20187;-82
2023/11/22 10:35:55;;;;;;;7.23;3.93;;;-1.40;99.90;;;;;;4937978;29;20198;-85
2023/11/22 10:38:22;;;;;;;5.53;3.37;;;-1.40;99.90;;;;;;4921373;29;20205;-82
2023/11/22 10:40:51;;;;;;;6.93;3.90;;;-1.30;99.90;;;;;;4937811;29;20228;-81
2023/11/22 10:43:23;;;;;;;5.53;3.60;;;-1.20;99.90;;;;;;4937860;29;20199;-82
2023/11/22 10:45:53;;;;;;;8.27;4.33;;;-1.10;99.90;;;;;;4937807;29;20223;-84
2023/11/22 10:48:21;;;;;;;9.57;4.50;;;-1.10;99.90;;;;;;4938006;29;20226;-82
2023/11/22 10:50:48;;;;;;;6.77;4.23;;;-1.20;99.90;;;;;;4921236;29;20199;-82
2023/11/22 10:53:20;;;;;;;6.90;4.00;;;-1.10;99.90;;;;;;4938241;29;20259;-83
2023/11/22 10:55:48;;;;;;;8.37;4.13;;;-1.10;99.90;;;;;;4920519;29;20219;-82
2023/11/22 10:58:17;;;;;;;6.83;3.93;;;-1.10;99.90;;;;;;4937704;29;20199;-82
2023/11/22 11:00:45;;;;;;;11.30;4.00;;;-1.00;99.90;;;;;;4936314;29;20270;-82
2023/11/22 11:03:21;;;;;;;6.60;4.10;;;-1.00;99.90;;;;;;4937560;29;20195;-82
2023/11/22 11:06:04;;;;;;;7.33;3.67;;;-1.00;99.90;;;;;;4936382;29;20747;-81
2023/11/22 11:08:33;;;;;;;7.00;3.80;;;-1.00;99.90;;;;;;4937485;29;20219;-82
2023/11/22 11:11:03;;;;;;;5.17;3.30;;;-1.00;99.90;;;;;;4952268;29;20213;-81
2023/11/22 11:13:31;;;;;;;6.60;3.87;;;-0.90;99.90;;;;;;4938143;29;20218;-82
2023/11/22 11:15:59;;;;;;;6.93;3.90;;;-0.90;99.90;;;;;;4937213;29;20547;-83
2023/11/22 11:18:30;;;;;;;6.40;3.80;;;-0.80;99.90;;;;;;4937468;29;20211;-82
2023/11/22 11:21:12;;;;;;;8.20;3.70;;;-0.70;99.90;;;;;;4937129;29;20187;-82
2023/11/22 11:23:41;;;;;;;7.03;3.57;;;-0.70;99.90;;;;;;4937129;29;20199;-83
2023/11/22 11:26:23;;;;;;;6.30;3.67;;;-0.40;99.90;;;;;;4937131;29;20239;-84
2023/11/22 11:28:52;;;;;;;5.97;3.67;;;0.20;99.90;;;;;;4919768;29;20225;-84
2023/11/22 11:31:22;;;;;;;5.70;3.47;;;1.00;99.90;;;;;;4950777;28;20215;-85
2023/11/22 11:33:53;;;;;;;6.93;4.00;;;2.00;99.90;;;;;;4937103;29;20239;-83
2023/11/22 11:36:28;;;;;;;7.60;3.73;;;2.90;99.90;;;;;;4919930;29;20242;-82
2023/11/22 11:38:57;;;;;;;6.33;3.70;;;3.50;99.90;;;;;;4935944;29;20230;-83
2023/11/22 11:41:33;;;;;;;4.80;3.50;;;4.10;99.90;;;;;;4935564;29;20757;-83
2023/11/22 11:44:07;;;;;;;6.47;3.77;;;4.20;99.90;;;;;;4919494;29;20210;-83
2023/11/22 11:46:36;;;;;;;5.57;3.67;;;4.50;99.90;;;;;;4935618;29;20212;-83
2023/11/22 11:49:10;;;;;;;6.57;4.10;;;5.10;99.90;;;;;;4936141;29;20226;-83
2023/11/22 11:51:38;;;;;;;5.73;3.83;;;5.30;99.90;;;;;;4935405;29;20260;-82
2023/11/22 11:54:06;;;;;;;6.10;3.77;;;5.20;99.90;;;;;;4935452;29;20243;-81
2023/11/22 11:56:34;;;;;;;5.47;3.47;;;4.70;99.90;;;;;;4919682;29;20261;-82
2023/11/22 11:59:02;;;;;;;6.47;3.90;;;4.20;99.90;;;;;;4904162;29;20191;-80
2023/11/22 12:01:30;;;;;;;5.87;3.40;;;3.80;99.90;;;;;;4936779;29;20532;-80
2023/11/22 12:04:00;;;;;;;5.07;3.23;;;3.30;99.90;;;;;;4935399;29;20286;-80
2023/11/22 12:06:29;;;;;;;4.53;3.60;;;3.00;99.90;;;;;;4919223;29;20272;-80
2023/11/22 12:08:57;;;;;;;9.73;4.17;;;2.50;99.90;;;;;;4935149;29;20307;-80
2023/11/22 12:11:25;;;;;;;6.70;3.90;;;2.20;99.90;;;;;;4936105;29;20313;-80
2023/11/22 12:13:54;;;;;;;6.10;3.67;;;2.10;99.90;;;;;;4934992;29;20203;-80
2023/11/22 12:16:22;;;;;;;5.97;3.50;;;1.90;99.90;;;;;;4935144;29;20218;-82
2023/11/22 12:18:51;;;;;;;8.43;4.10;;;1.70;99.90;;;;;;4934963;29;20615;-81
2023/11/22 12:21:19;;;;;;;7.43;3.90;;;1.50;99.90;;;;;;4936490;29;20441;-80
2023/11/22 12:23:47;;;;;;;5.70;3.73;;;1.20;99.90;;;;;;4936280;29;20252;-79
2023/11/22 12:26:19;;;;;;;6.97;4.20;;;1.00;99.90;;;;;;4918664;29;20231;-79
2023/11/22 12:28:49;;;;;;;8.33;4.00;;;1.20;99.90;;;;;;4935840;29;20262;-79
2023/11/22 12:31:34;;;;;;;7.50;3.70;;;0.90;99.90;;;;;;4936541;29;20202;-81
2023/11/22 12:34:07;;;;;;;5.87;3.87;;;0.90;99.90;;;;;;4933953;29;20210;-81
2023/11/22 12:36:36;;;;;;;6.60;4.03;;;0.70;99.90;;;;;;4935001;29;20242;-80
2023/11/22 12:39:08;;;;;;;7.67;4.20;;;0.60;99.90;;;;;;4919093;29;20198;-81
2023/11/22 12:41:36;;;;;;;6.00;3.90;;;0.50;99.90;;;;;;4935622;29;20240;-81
2023/11/22 12:44:07;;;;;;;8.30;4.10;;;0.60;99.90;;;;;;4918462;29;20238;-80
2023/11/22 12:46:49;;;;;;;6.30;4.10;;;1.00;99.90;;;;;;4934835;29;20228;-80
2023/11/22 12:49:18;;;;;;;6.80;4.03;;;1.60;99.90;;;;;;4933784;29;20233;-80
2023/11/22 12:51:50;;;;;;;9.13;4.30;;;2.10;99.90;;;;;;4938009;29;20267;-79
2023/11/22 12:54:21;;;;;;;8.57;4.33;;;2.50;99.90;;;;;;4936101;29;20293;-79